Time;durP1;ratioP1;P1;durP2;ratioP2;P2;SDS_P1;SDS_P2;PMS_P1;PMS_P2;Temp;Humidity;BMP_temperature;BMP_pressure;BME280_temperature;BME280_humidity;BME280_pressure;Samples;Min_cycle;Max_cycle;Signal;HPM_P1;HPM_P2
2022/11/29 07:37:19;;;;;;;;;20.75;20.50;;;;;8.42;100.00;101583.78;5229728;23;50281;-70
2022/11/29 07:40:13;;;;;;;;;24.00;20.00;;;;;8.16;100.00;101556.47;5016543;28;50168;-69
2022/11/29 07:42:53;;;;;;;;;22.25;21.50;;;;;8.27;100.00;101576.13;5017906;28;49928;-69
2022/11/29 07:45:21;;;;;;;;;23.50;22.25;;;;;8.38;100.00;101601.91;5016100;28;50045;-69
2022/11/29 07:47:48;;;;;;;;;20.50;18.00;;;;;8.22;100.00;101585.53;5033857;28;50866;-68
2022/11/29 07:50:13;;;;;;;;;25.00;23.00;;;;;8.34;100.00;101600.84;5023081;28;49881;-69
2022/11/29 07:52:39;;;;;;;;;25.25;22.00;;;;;8.31;100.00;101606.84;5033719;28;49459;-68
2022/11/29 07:55:05;;;;;;;;;25.50;23.75;;;;;8.28;100.00;101604.06;5021179;28;49757;-68
2022/11/29 07:57:30;;;;;;;;;20.75;20.75;;;;;8.22;100.00;101596.00;5028925;28;49963;-69
2022/11/29 07:59:56;;;;;;;;;23.00;22.75;;;;;8.36;100.00;101616.63;5028367;28;52156;-69
2022/11/29 08:02:28;;;;;;;;;20.25;16.75;;;;;8.36;100.00;101617.53;5018446;28;49816;-69
2022/11/29 08:04:54;;;;;;;;;27.25;26.50;;;;;8.22;100.00;101602.94;5017052;28;49747;-69
2022/11/29 08:07:20;;;;;;;;;32.50;28.00;;;;;8.24;100.00;101598.66;5024009;28;49839;-70
2022/11/29 08:09:45;;;;;;;;;32.50;29.50;;;;;8.31;100.00;101619.94;5013627;28;49840;-70
2022/11/29 08:12:10;;;;;;;;;30.75;27.25;;;;;8.13;100.00;101602.53;5023641;28;49716;-71
2022/11/29 08:14:36;;;;;;;;;32.00;27.50;;;;;8.21;100.00;101619.47;5030094;28;49952;-70
2022/11/29 08:17:01;;;;;;;;;30.50;25.25;;;;;8.19;100.00;101626.31;5033422;28;50038;-71
2022/11/29 08:19:26;;;;;;;;;35.50;27.75;;;;;8.23;100.00;101636.13;5026998;28;49768;-70
2022/11/29 08:21:52;;;;;;;;;36.50;31.50;;;;;7.92;100.00;101592.03;5019686;28;57571;-68
2022/11/29 08:24:18;;;;;;;;;38.25;35.75;;;;;8.08;100.00;101632.81;5030455;28;49817;-70
2022/11/29 08:26:43;;;;;;;;;41.00;37.50;;;;;7.98;100.00;101611.47;5003158;28;52072;-71
2022/11/29 08:29:08;;;;;;;;;38.50;36.25;;;;;8.14;100.00;101652.28;5026872;28;49804;-68
2022/11/29 08:31:34;;;;;;;;;46.75;38.50;;;;;7.79;100.00;101598.41;5021706;28;49678;-70
2022/11/29 08:33:59;;;;;;;;;42.50;38.25;;;;;7.68;100.00;101600.53;5035053;28;49588;-75
2022/11/29 08:36:24;;;;;;;;;49.50;36.00;;;;;7.61;100.00;101628.91;5022016;28;50281;-76
2022/11/29 08:38:50;;;;;;;;;44.00;39.75;;;;;7.77;100.00;101656.66;5021485;28;49748;-76
2022/11/29 08:41:16;;;;;;;;;54.25;41.25;;;;;7.63;100.00;101651.72;4991840;28;49755;-79
2022/11/29 08:43:42;;;;;;;;;45.50;39.50;;;;;7.70;100.00;101676.38;5011367;28;49836;-78
2022/11/29 08:46:08;;;;;;;;;45.25;33.50;;;;;6.71;100.00;101514.97;5032707;28;49886;-76
2022/11/29 08:48:34;;;;;;;;;38.25;36.25;;;;;7.65;100.00;101683.13;5032769;28;49751;-78
2022/11/29 08:51:00;;;;;;;;;47.50;41.50;;;;;7.50;100.00;101651.03;5032394;28;49595;-78
2022/11/29 08:53:42;;;;;;;;;48.00;36.50;;;;;7.79;100.00;101707.28;5032499;28;49679;-79
2022/11/29 08:56:10;;;;;;;;;36.75;33.50;;;;;7.88;100.00;101703.38;5025988;28;50831;-78
2022/11/29 08:58:36;;;;;;;;;36.50;33.50;;;;;7.59;100.00;101636.69;4995387;28;49868;-72
2022/11/29 09:01:03;;;;;;;;;45.25;36.75;;;;;8.19;100.00;101707.41;5019391;28;49760;-77
2022/11/29 09:06:15;;;;;;;;;37.50;33.50;;;;;8.39;100.00;101716.19;5013292;28;49895;-79
2022/11/29 09:08:42;;;;;;;;;44.75;38.00;;;;;8.41;100.00;101712.84;5013258;28;49904;-72
2022/11/29 09:11:14;;;;;;;;;35.75;35.50;;;;;8.32;100.00;101708.06;5013174;28;50001;-75
2022/11/29 09:13:45;;;;;;;;;48.00;39.25;;;;;8.12;100.00;101685.34;5013278;28;49786;-72
2022/11/29 09:16:13;;;;;;;;;46.25;40.00;;;;;8.31;100.00;101728.91;5012683;28;52292;-75
2022/11/29 09:18:40;;;;;;;;;52.25;39.75;;;;;8.27;100.00;101725.25;5013036;28;49622;-76
2022/11/29 09:21:08;;;;;;;;;42.75;35.75;;;;;8.21;100.00;101718.88;5012539;28;49783;-74
2022/11/29 09:23:34;;;;;;;;;55.00;39.50;;;;;8.25;100.00;101733.84;5015979;28;50103;-73
2022/11/29 09:25:59;;;;;;;;;44.50;37.00;;;;;8.19;100.00;101716.16;5012991;28;50011;-75
2022/11/29 09:28:25;;;;;;;;;55.75;43.00;;;;;8.13;100.00;101694.06;5012970;28;49852;-77
2022/11/29 09:30:50;;;;;;;;;60.75;40.50;;;;;8.11;100.00;101667.84;5016195;28;50389;-72
2022/11/29 09:33:16;;;;;;;;;47.25;38.50;;;;;8.53;100.00;101731.69;5013050;28;50016;-75
2022/11/29 09:35:41;;;;;;;;;34.25;30.25;;;;;8.22;100.00;101689.25;5012013;28;50339;-75
2022/11/29 09:38:10;;;;;;;;;30.00;26.25;;;;;8.47;100.00;101752.34;5012671;28;49845;-78
2022/11/29 09:40:52;;;;;;;;;32.50;27.25;;;;;8.60;100.00;101761.66;5012750;28;49788;-78
2022/11/29 09:43:23;;;;;;;;;29.75;25.25;;;;;8.25;100.00;101707.69;5013077;28;49672;-76
2022/11/29 09:46:16;;;;;;;;;29.00;26.50;;;;;8.51;100.00;101724.59;5012492;28;49827;-75
2022/11/29 09:48:44;;;;;;;;;31.50;25.50;;;;;8.85;100.00;101758.38;5025256;28;49785;-73
2022/11/29 09:51:22;;;;;;;;;25.75;25.50;;;;;8.76;100.00;101731.78;5031670;28;49638;-73
2022/11/29 09:53:48;;;;;;;;;27.50;25.00;;;;;8.93;100.00;101771.81;5013714;28;49694;-73
2022/11/29 09:56:28;;;;;;;;;32.75;30.75;;;;;8.96;100.00;101772.84;5030695;28;49847;-72
2022/11/29 09:59:34;;;;;;;;;28.75;27.75;;;;;7.84;100.00;101556.81;5031642;28;50074;-79
2022/11/29 10:02:17;;;;;;;;;27.50;25.75;;;;;8.99;100.00;101749.41;5020734;28;49797;-70
2022/11/29 10:04:48;;;;;;;;;30.25;26.25;;;;;8.78;100.00;101704.88;5031235;28;49807;-71
2022/11/29 10:07:29;;;;;;;;;33.50;30.25;;;;;9.27;100.00;101785.53;5031128;28;50756;-71
2022/11/29 10:10:01;;;;;;;;;34.50;32.00;;;;;8.80;100.00;101694.47;5031279;28;49772;-71
2022/11/29 10:12:36;;;;;;;;;34.25;30.00;;;;;9.29;100.00;101749.81;5027108;28;50084;-71
2022/11/29 10:15:20;;;;;;;;;33.00;27.25;;;;;9.51;100.00;101782.13;5016876;28;49859;-72
2022/11/29 10:17:54;;;;;;;;;35.00;32.50;;;;;9.49;100.00;101762.84;5021453;28;49767;-73
2022/11/29 10:20:31;;;;;;;;;32.50;27.50;;;;;9.42;100.00;101741.59;5030768;28;49674;-71
2022/11/29 10:23:19;;;;;;;;;35.00;33.50;;;;;9.51;100.00;101754.19;5031246;28;49991;-70
2022/11/29 10:25:47;;;;;;;;;39.00;35.75;;;;;9.77;100.00;101778.84;5031367;28;51866;-70
2022/11/29 10:28:20;;;;;;;;;39.00;35.75;;;;;9.21;100.00;101676.97;5030827;28;50340;-71
2022/11/29 10:30:46;;;;;;;;;36.75;30.75;;;;;9.83;100.00;101780.81;5031128;28;49722;-71
2022/11/29 10:33:26;;;;;;;;;43.75;36.00;;;;;9.91;100.00;101787.25;5030878;28;49925;-70
2022/11/29 10:35:56;;;;;;;;;34.75;31.50;;;;;9.54;100.00;101709.75;5027583;28;49638;-70
2022/11/29 10:38:23;;;;;;;;;34.75;28.75;;;;;9.54;100.00;101699.25;5011719;28;50660;-69
2022/11/29 10:40:57;;;;;;;;;37.50;32.75;;;;;10.01;100.00;101785.06;5011878;28;49830;-69
2022/11/29 10:43:25;;;;;;;;;42.25;37.00;;;;;10.09;100.00;101784.47;5011864;28;49721;-69
2022/11/29 10:45:54;;;;;;;;;38.50;31.25;;;;;9.86;100.00;101750.38;5011622;28;50194;-69
2022/11/29 10:48:22;;;;;;;;;37.25;35.75;;;;;10.13;100.00;101792.50;5011449;28;50371;-67
2022/11/29 10:50:50;;;;;;;;;32.75;29.75;;;;;10.28;100.00;101793.16;4993257;28;49709;-67
2022/11/29 10:53:16;;;;;;;;;38.25;36.50;;;;;10.24;100.00;101764.13;5011664;28;49654;-68
2022/11/29 10:55:49;;;;;;;;;45.25;39.00;;;;;10.30;100.00;101774.81;5011805;28;49806;-68
2022/11/29 10:58:18;;;;;;;;;43.75;36.00;;;;;10.57;100.00;101794.25;5011380;28;50077;-67
2022/11/29 11:00:56;;;;;;;;;38.75;36.25;;;;;10.50;100.00;101786.97;5011460;28;50003;-68
2022/11/29 11:03:32;;;;;;;;;37.00;33.25;;;;;10.57;100.00;101795.97;5017446;28;49753;-68
2022/11/29 11:06:05;;;;;;;;;41.75;34.25;;;;;10.58;100.00;101795.13;5025034;28;50008;-69
2022/11/29 11:08:32;;;;;;;;;42.25;37.25;;;;;10.58;100.00;101776.75;5027227;28;49788;-69
2022/11/29 11:10:58;;;;;;;;;45.50;38.25;;;;;10.48;100.00;101738.78;4993579;28;49891;-68
2022/11/29 11:13:26;;;;;;;;;41.50;37.25;;;;;10.83;100.00;101779.44;5011413;28;50108;-69
2022/11/29 11:16:14;;;;;;;;;35.00;32.25;;;;;10.72;100.00;101749.28;5009840;28;49770;-69
2022/11/29 11:18:40;;;;;;;;;41.50;38.00;;;;;10.77;100.00;101744.19;5010795;28;49814;-70
2022/11/29 11:21:12;;;;;;;;;45.00;39.75;;;;;10.55;100.00;101722.41;5010993;28;49697;-68
2022/11/29 11:24:00;;;;;;;;;44.25;36.00;;;;;11.10;100.00;101790.03;5010858;28;49968;-70
2022/11/29 11:26:26;;;;;;;;;35.25;34.00;;;;;11.23;100.00;101794.00;5024779;28;49872;-69
2022/11/29 11:29:02;;;;;;;;;40.75;36.50;;;;;11.14;100.00;101765.66;5027669;28;51407;-69
2022/11/29 11:31:28;;;;;;;;;45.75;38.25;;;;;11.13;100.00;101752.47;5011243;28;49939;-68
2022/11/29 11:33:54;;;;;;;;;44.00;37.00;;;;;11.39;100.00;101798.94;5010947;28;49850;-72
2022/11/29 11:36:19;;;;;;;;;45.50;37.50;;;;;11.43;100.00;101787.66;5014614;28;49834;-71
2022/11/29 11:39:21;;;;;;;;;44.00;36.50;;;;;11.45;100.00;101783.34;5010442;28;49848;-70
2022/11/29 11:44:52;;;;;;;;;50.50;40.75;;;;;11.44;100.00;101770.16;5019453;28;50092;-70
2022/11/29 11:47:26;;;;;;;;;41.00;36.00;;;;;11.57;100.00;101782.84;5030167;28;49936;-71
2022/11/29 11:50:03;;;;;;;;;34.50;32.75;;;;;11.69;100.00;101795.53;5029573;28;49883;-70
2022/11/29 11:52:42;;;;;;;;;39.25;32.25;;;;;11.47;100.00;101763.25;5029621;28;49712;-70
2022/11/29 11:55:19;;;;;;;;;38.75;32.00;;;;;11.69;100.00;101787.66;5029903;28;49626;-70
2022/11/29 11:57:45;;;;;;;;;27.75;25.25;;;;;11.39;100.00;101727.94;5029917;28;49831;-71
2022/11/29 12:00:36;;;;;;;;;43.50;37.25;;;;;11.66;100.00;101792.78;5029357;28;50688;-71
2022/11/29 12:03:02;;;;;;;;;38.75;34.75;;;;;11.50;100.00;101770.38;5029601;28;49844;-70
2022/11/29 12:05:27;;;;;;;;;35.75;34.75;;;;;11.59;100.00;101768.03;5029266;28;49631;-71
2022/11/29 12:08:00;;;;;;;;;44.50;38.25;;;;;11.64;100.00;101797.09;5029811;28;49994;-71
2022/11/29 12:10:33;;;;;;;;;33.50;32.00;;;;;11.61;100.00;101794.38;5029402;28;50732;-70
2022/11/29 12:13:00;;;;;;;;;38.25;33.25;;;;;11.48;100.00;101748.38;5029466;28;50035;-71
2022/11/29 12:15:31;;;;;;;;;30.00;28.25;;;;;11.67;100.00;101790.19;5029469;28;49957;-71
2022/11/29 12:18:36;;;;;;;;;40.00;35.50;;;;;11.76;100.00;101793.13;5011279;28;49844;-71
2022/11/29 12:21:20;;;;;;;;;33.25;30.50;;;;;11.77;100.00;101791.38;5029251;28;50546;-72
2022/11/29 12:24:15;;;;;;;;;36.00;31.00;;;;;11.25;100.00;101678.38;5029390;28;49765;-71
2022/11/29 12:26:42;;;;;;;;;40.50;34.00;;;;;11.23;100.00;101659.94;5010523;28;49917;-71
2022/11/29 12:29:28;;;;;;;;;40.00;35.75;;;;;12.01;100.00;101791.31;5010429;28;49873;-70
2022/11/29 12:32:24;;;;;;;;;31.75;28.75;;;;;12.03;100.00;101784.38;5009774;28;49773;-72
2022/11/29 12:35:26;;;;;;;;;30.50;26.25;;;;;12.03;100.00;101785.25;5003477;28;50263;-71
2022/11/29 12:38:22;;;;;;;;;33.75;29.50;;;;;12.02;100.00;101783.47;5029075;28;50277;-72
2022/11/29 12:41:08;;;;;;;;;37.50;34.75;;;;;12.01;100.00;101783.44;5029164;28;50131;-71
2022/11/29 12:43:36;;;;;;;;;42.50;33.25;;;;;12.15;100.00;101795.25;5029033;28;49859;-71
2022/11/29 12:46:17;;;;;;;;;40.50;33.75;;;;;12.16;100.00;101802.34;5029132;28;50064;-70
2022/11/29 12:48:57;;;;;;;;;46.25;36.25;;;;;12.10;100.00;101794.25;5028697;28;49978;-71
2022/11/29 12:51:36;;;;;;;;;37.00;34.25;;;;;11.99;99.61;101788.66;5029016;28;50100;-71
2022/11/29 12:54:33;;;;;;;;;41.75;37.00;;;;;12.07;100.00;101806.44;5027897;28;50961;-71
2022/11/29 12:57:13;;;;;;;;;38.50;35.00;;;;;11.92;100.00;101785.78;5009778;28;49685;-71
2022/11/29 13:00:03;;;;;;;;;34.50;31.25;;;;;12.08;99.37;101819.63;5009919;28;49821;-70
2022/11/29 13:03:05;;;;;;;;;34.25;31.00;;;;;12.04;99.40;101823.88;5024064;28;49769;-72
2022/11/29 13:05:32;;;;;;;;;36.75;34.50;;;;;12.03;99.01;101819.47;5028271;28;49697;-71
2022/11/29 13:08:37;;;;;;;;;35.00;28.50;;;;;11.34;100.00;101697.97;5028790;28;50023;-71
2022/11/29 13:11:09;;;;;;;;;32.75;30.00;;;;;12.25;98.99;101825.41;5010872;28;49784;-71
2022/11/29 13:13:37;;;;;;;;;36.50;34.75;;;;;12.35;99.79;101819.56;5028710;28;49758;-72
2022/11/29 13:16:26;;;;;;;;;35.75;33.25;;;;;12.14;98.88;101774.16;5028682;28;49939;-70
2022/11/29 13:19:04;;;;;;;;;33.00;28.50;;;;;12.02;98.73;101765.06;5028523;28;50007;-72
2022/11/29 13:21:41;;;;;;;;;27.00;23.50;;;;;12.29;97.06;101775.53;5029178;28;50388;-71
2022/11/29 13:24:16;;;;;;;;;25.75;22.75;;;;;11.80;94.82;101699.47;5029037;28;49920;-69
2022/11/29 13:26:46;;;;;;;;;24.00;19.25;;;;;12.31;94.73;101775.56;5028557;28;50457;-69
2022/11/29 13:29:15;;;;;;;;;17.50;17.50;;;;;12.41;96.08;101788.16;5028637;28;49690;-71
2022/11/29 13:31:41;;;;;;;;;19.00;14.00;;;;;12.46;91.98;101814.66;5010025;28;49630;-68
2022/11/29 13:34:16;;;;;;;;;16.00;16.00;;;;;12.24;91.51;101795.53;5014355;28;50159;-71
2022/11/29 13:36:50;;;;;;;;;11.75;11.75;;;;;12.16;91.96;101810.25;5012668;28;50318;-70
2022/11/29 13:39:37;;;;;;;;;19.25;19.00;;;;;12.21;92.22;101810.38;5025580;28;49891;-70
2022/11/29 13:42:05;;;;;;;;;15.00;15.00;;;;;12.04;91.75;101812.47;5026943;28;50184;-70
2022/11/29 13:44:54;;;;;;;;;18.25;15.50;;;;;12.04;92.96;101813.34;5031928;28;49912;-70
2022/11/29 13:47:20;;;;;;;;;18.25;15.50;;;;;11.80;93.23;101778.38;5031446;28;50902;-70
2022/11/29 13:49:55;;;;;;;;;13.00;13.00;;;;;11.87;90.88;101814.59;5031211;28;49872;-76
2022/11/29 13:52:42;;;;;;;;;15.00;11.50;;;;;11.78;92.06;101794.94;5031828;28;49894;-68
2022/11/29 13:55:27;;;;;;;;;17.50;14.25;;;;;11.73;92.98;101803.56;5031845;28;49775;-68
2022/11/29 13:58:02;;;;;;;;;12.25;10.75;;;;;11.81;93.21;101814.38;5031261;28;50461;-70
2022/11/29 14:00:28;;;;;;;;;11.00;10.50;;;;;11.78;92.79;101814.25;5014171;28;49659;-70
2022/11/29 14:02:56;;;;;;;;;9.75;9.75;;;;;11.71;93.84;101796.47;5026271;28;49879;-70
2022/11/29 14:05:27;;;;;;;;;11.75;10.75;;;;;11.57;94.07;101781.97;5019228;28;49768;-70
2022/11/29 14:08:23;;;;;;;;;18.00;15.25;;;;;11.62;93.59;101810.22;5013217;28;50474;-69
2022/11/29 14:10:52;;;;;;;;;17.25;17.25;;;;;11.57;94.50;101814.41;5017375;28;49829;-70
2022/11/29 14:13:22;;;;;;;;;18.25;17.75;;;;;11.37;95.26;101789.19;5016603;28;49958;-70
2022/11/29 14:15:57;;;;;;;;;15.50;12.25;;;;;11.38;95.34;101807.63;5012501;28;49648;-69
2022/11/29 14:18:41;;;;;;;;;12.50;12.50;;;;;11.38;95.11;101814.63;5014472;28;50712;-69
2022/11/29 14:21:07;;;;;;;;;22.25;18.50;;;;;11.29;95.76;101804.72;5014561;28;49842;-70
2022/11/29 14:23:36;;;;;;;;;21.00;17.00;;;;;11.31;96.23;101807.41;5012124;28;49672;-70
2022/11/29 14:26:02;;;;;;;;;21.00;17.00;;;;;11.32;96.72;101812.72;5016833;28;50023;-69
2022/11/29 14:28:36;;;;;;;;;21.00;14.75;;;;;11.33;96.52;101803.97;5012614;28;50581;-66
2022/11/29 14:31:03;;;;;;;;;18.75;17.25;;;;;11.31;96.30;101799.50;5015257;28;49885;-68
2022/11/29 14:33:36;;;;;;;;;13.50;13.50;;;;;11.26;96.89;101808.97;5013155;28;49798;-74
2022/11/29 14:36:07;;;;;;;;;10.75;10.75;;;;;11.15;96.31;101801.59;5013018;28;49755;-65
2022/11/29 14:38:43;;;;;;;;;9.75;8.25;;;;;11.26;96.67;101814.22;5011967;28;50525;-66
2022/11/29 14:41:29;;;;;;;;;15.25;12.50;;;;;11.14;97.53;101778.78;5013366;28;49890;-65
2022/11/29 14:44:27;;;;;;;;;13.75;12.75;;;;;11.34;96.73;101805.75;5011824;28;49801;-70
2022/11/29 14:47:04;;;;;;;;;15.50;12.00;;;;;11.32;96.71;101809.19;5011902;28;50531;-68
2022/11/29 14:49:41;;;;;;;;;10.75;9.00;;;;;11.25;95.63;101813.31;5032922;28;51233;-70
2022/11/29 14:52:13;;;;;;;;;12.25;8.50;;;;;11.35;96.25;101823.31;5017633;28;49989;-70
2022/11/29 14:55:00;;;;;;;;;10.50;9.75;;;;;11.41;96.09;101825.28;5015713;28;49836;-67
2022/11/29 14:57:51;;;;;;;;;11.75;11.00;;;;;11.40;95.14;101834.00;5025865;28;49847;-66
2022/11/29 15:00:48;;;;;;;;;12.50;8.00;;;;;11.42;95.86;101833.22;5030494;28;51437;-66
2022/11/29 15:03:37;;;;;;;;;14.00;12.00;;;;;11.39;95.59;101848.88;5026536;28;49823;-68
2022/11/29 15:06:25;;;;;;;;;3.25;2.50;;;;;11.39;96.40;101837.47;5030852;28;49532;-68
2022/11/29 15:09:02;;;;;;;;;10.00;9.00;;;;;11.44;96.65;101841.16;5031988;28;49652;-68
2022/11/29 15:11:50;;;;;;;;;10.75;8.25;;;;;11.36;97.55;101827.72;5030583;28;50353;-68
2022/11/29 15:14:46;;;;;;;;;15.00;11.50;;;;;11.47;96.96;101836.88;5030776;28;49934;-69
2022/11/29 15:17:26;;;;;;;;;9.75;8.75;;;;;11.45;97.51;101845.56;5030889;28;49933;-70
2022/11/29 15:20:30;;;;;;;;;13.50;13.50;;;;;11.39;96.43;101848.00;5036662;28;49704;-69
2022/11/29 15:22:59;;;;;;;;;15.75;12.25;;;;;11.30;95.36;101848.56;4989128;28;50488;-70
2022/11/29 15:25:30;;;;;;;;;17.75;15.75;;;;;11.35;96.38;101846.97;5011932;28;49766;-69
2022/11/29 15:28:02;;;;;;;;;16.75;15.75;;;;;11.30;96.42;101839.78;5030734;28;50254;-70
2022/11/29 15:30:29;;;;;;;;;20.50;17.50;;;;;11.32;98.24;101865.28;5030706;28;50092;-69
2022/11/29 15:32:56;;;;;;;;;23.25;21.00;;;;;11.10;100.00;101855.75;5030255;28;50028;-70
2022/11/29 15:35:22;;;;;;;;;26.25;24.25;;;;;11.04;100.00;101871.28;5029930;28;49871;-70
2022/11/29 15:37:48;;;;;;;;;25.75;21.50;;;;;10.77;100.00;101836.09;5030227;28;49711;-68
2022/11/29 15:40:17;;;;;;;;;27.00;24.75;;;;;10.83;100.00;101842.50;5030342;28;50077;-71
2022/11/29 15:43:01;;;;;;;;;24.25;21.50;;;;;10.91;100.00;101863.81;5030233;28;49800;-69
2022/11/29 15:45:33;;;;;;;;;34.50;24.00;;;;;10.83;100.00;101865.25;5029971;28;49807;-69
2022/11/29 15:48:12;;;;;;;;;20.50;20.50;;;;;10.79;100.00;101866.84;5009207;28;50312;-69
2022/11/29 15:50:50;;;;;;;;;22.75;21.50;;;;;10.73;100.00;101871.00;5011214;28;49631;-68
2022/11/29 15:53:22;;;;;;;;;29.00;25.50;;;;;10.60;100.00;101865.25;5029341;28;50754;-68
2022/11/29 15:55:49;;;;;;;;;20.75;17.00;;;;;10.51;100.00;101872.78;5010826;28;49914;-70
2022/11/29 15:58:16;;;;;;;;;31.25;27.50;;;;;10.37;100.00;101867.84;5010859;28;49932;-68
2022/11/29 16:00:44;;;;;;;;;21.25;18.75;;;;;10.36;100.00;101873.94;5011070;28;49683;-70
2022/11/29 16:03:25;;;;;;;;;22.75;22.75;;;;;10.25;100.00;101886.63;5010838;28;50706;-70
2022/11/29 16:06:04;;;;;;;;;29.50;27.75;;;;;10.17;100.00;101883.66;5031296;28;49725;-68
2022/11/29 16:08:36;;;;;;;;;27.50;26.00;;;;;10.12;100.00;101879.94;5028968;28;50251;-67
2022/11/29 16:11:04;;;;;;;;;30.00;25.00;;;;;10.08;100.00;101893.78;5020342;28;49795;-67
2022/11/29 16:13:40;;;;;;;;;27.75;26.50;;;;;10.00;100.00;101890.84;4994038;28;50368;-67
2022/11/29 16:16:22;;;;;;;;;44.50;31.75;;;;;9.86;100.00;101880.63;5013842;28;49849;-66
2022/11/29 16:18:49;;;;;;;;;29.00;25.75;;;;;9.92;100.00;101902.72;5013995;28;49879;-68
2022/11/29 16:21:27;;;;;;;;;32.50;26.00;;;;;9.74;100.00;101891.47;5018764;28;49776;-67
2022/11/29 16:23:53;;;;;;;;;34.00;30.75;;;;;9.87;100.00;101909.53;5025502;28;49899;-69
2022/11/29 16:26:28;;;;;;;;;36.75;27.75;;;;;9.80;100.00;101917.06;5019555;28;49816;-68
2022/11/29 16:28:57;;;;;;;;;30.25;27.00;;;;;9.73;100.00;101908.94;5018352;28;49982;-68
2022/11/29 16:31:31;;;;;;;;;30.50;26.25;;;;;9.66;100.00;101903.38;5021656;28;49813;-74
2022/11/29 16:34:06;;;;;;;;;29.75;26.75;;;;;9.48;100.00;101882.53;4995396;28;51714;-73
2022/11/29 16:36:32;;;;;;;;;35.50;32.25;;;;;9.04;100.00;101818.59;5011179;28;49936;-75
2022/11/29 16:39:22;;;;;;;;;34.25;31.00;;;;;9.52;100.00;101900.16;5029001;28;49800;-74
2022/11/29 16:42:17;;;;;;;;;39.75;34.75;;;;;9.71;100.00;101930.69;5006068;28;50385;-74
2022/11/29 16:44:43;;;;;;;;;35.25;30.00;;;;;9.66;100.00;101924.38;5019329;28;50639;-72
2022/11/29 16:47:19;;;;;;;;;40.75;34.50;;;;;9.65;100.00;101927.78;5017504;28;50182;-74
2022/11/29 16:49:44;;;;;;;;;36.00;34.50;;;;;9.65;100.00;101938.28;5009925;28;49837;-74
2022/11/29 16:52:30;;;;;;;;;34.75;30.25;;;;;9.41;100.00;101885.69;5011441;28;49977;-73
2022/11/29 16:54:56;;;;;;;;;39.25;32.25;;;;;9.68;100.00;101930.56;5026857;28;50259;-72
2022/11/29 16:57:23;;;;;;;;;39.00;33.00;;;;;9.44;100.00;101905.06;5005515;28;50136;-72
2022/11/29 16:59:49;;;;;;;;;41.50;30.50;;;;;9.51;100.00;101916.72;5017625;28;49879;-72
2022/11/29 17:02:14;;;;;;;;;37.25;33.25;;;;;9.52;100.00;101920.22;5018666;28;50316;-72
2022/11/29 17:04:40;;;;;;;;;31.50;31.25;;;;;9.17;100.00;101872.44;5016789;28;50128;-74
2022/11/29 17:07:11;;;;;;;;;34.50;33.00;;;;;9.42;100.00;101930.31;5013539;28;49860;-73
2022/11/29 17:09:37;;;;;;;;;31.25;29.25;;;;;9.22;100.00;101909.31;5013359;28;49787;-71
2022/11/29 17:12:03;;;;;;;;;36.25;32.50;;;;;9.34;100.00;101930.81;5013637;28;49873;-72
2022/11/29 17:14:30;;;;;;;;;33.00;31.75;;;;;9.38;100.00;101938.00;5016872;28;49740;-74
2022/11/29 17:16:55;;;;;;;;;36.75;35.25;;;;;9.04;100.00;101899.78;5017288;28;50159;-73
2022/11/29 17:19:22;;;;;;;;;40.00;34.00;;;;;9.33;100.00;101943.00;5025660;28;49800;-72
2022/11/29 17:21:48;;;;;;;;;36.00;34.00;;;;;9.34;100.00;101943.91;5019734;28;49943;-72
2022/11/29 17:24:16;;;;;;;;;42.75;36.25;;;;;9.39;100.00;101950.25;5029904;28;49889;-72
2022/11/29 17:26:43;;;;;;;;;32.25;27.75;;;;;9.40;100.00;101941.56;5027859;28;49864;-72
2022/11/29 17:29:10;;;;;;;;;41.00;32.50;;;;;9.10;100.00;101888.69;5028234;28;49654;-73
2022/11/29 17:31:35;;;;;;;;;40.00;37.25;;;;;9.38;100.00;101951.97;5026307;28;49889;-72
2022/11/29 17:34:01;;;;;;;;;30.50;28.00;;;;;9.22;100.00;101936.41;5026296;28;50554;-72
2022/11/29 17:36:27;;;;;;;;;33.00;32.25;;;;;8.76;100.00;101873.16;5030227;28;49750;-72
2022/11/29 17:38:52;;;;;;;;;45.50;39.00;;;;;9.13;100.00;101957.84;5046651;28;49575;-70
2022/11/29 17:41:21;;;;;;;;;40.50;34.50;;;;;8.58;100.00;101897.66;5050169;28;49437;-76
2022/11/29 17:43:48;;;;;;;;;50.75;37.50;;;;;8.32;100.00;101837.97;5048044;28;51442;-75
2022/11/29 17:46:17;;;;;;;;;48.00;40.00;;;;;8.75;100.00;101905.41;5043792;28;49473;-72
2022/11/29 17:48:45;;;;;;;;;45.50;36.75;;;;;8.99;100.00;101958.94;5042616;28;49899;-72
2022/11/29 17:51:11;;;;;;;;;46.75;39.00;;;;;8.64;100.00;101923.25;5046110;28;49729;-72
2022/11/29 17:53:37;;;;;;;;;44.00;36.00;;;;;8.79;100.00;101939.69;5049726;28;50146;-73
2022/11/29 17:56:14;;;;;;;;;40.50;37.50;;;;;8.96;100.00;101977.09;5038611;28;49585;-72
2022/11/29 17:58:43;;;;;;;;;50.75;41.25;;;;;8.97;100.00;101967.53;5032112;28;49899;-70
2022/11/29 18:01:15;;;;;;;;;45.75;38.75;;;;;8.91;100.00;101952.44;5032978;28;49938;-70
2022/11/29 18:03:43;;;;;;;;;45.75;35.25;;;;;7.63;100.00;101731.81;5029826;28;52404;-72
2022/11/29 18:06:10;;;;;;;;;44.75;38.00;;;;;7.93;100.00;101789.91;5032052;28;50038;-72
2022/11/29 18:08:38;;;;;;;;;41.75;34.75;;;;;8.86;100.00;101954.84;5031728;28;49827;-71
2022/11/29 18:11:09;;;;;;;;;36.50;33.75;;;;;7.72;100.00;101745.31;5031945;28;50008;-71
2022/11/29 18:13:35;;;;;;;;;30.25;26.75;;;;;9.06;100.00;101996.75;5016588;28;51193;-71
2022/11/29 18:16:05;;;;;;;;;35.25;31.50;;;;;7.99;100.00;101801.53;5012521;28;50020;-72
2022/11/29 18:18:31;;;;;;;;;40.75;35.25;;;;;9.11;100.00;101988.31;5012253;28;49836;-70
2022/11/29 18:20:59;;;;;;;;;31.75;29.00;;;;;8.74;100.00;101945.53;5013610;28;49812;-72
2022/11/29 18:23:26;;;;;;;;;52.75;39.00;;;;;9.08;100.00;102005.63;5012749;28;50521;-74
2022/11/29 18:25:59;;;;;;;;;40.50;34.50;;;;;9.09;100.00;101996.94;5012939;28;49825;-72
2022/11/29 18:28:26;;;;;;;;;41.50;37.25;;;;;9.05;100.00;101993.25;5014947;28;49897;-73
2022/11/29 18:30:51;;;;;;;;;42.25;35.00;;;;;9.08;100.00;102001.28;5019344;28;49803;-71
2022/11/29 18:33:16;;;;;;;;;42.00;37.50;;;;;9.07;100.00;101989.00;5011999;28;49586;-77
2022/11/29 18:35:42;;;;;;;;;41.75;35.50;;;;;9.09;100.00;101995.22;5014596;28;66544;-71
2022/11/29 18:38:07;;;;;;;;;45.50;36.50;;;;;9.06;100.00;101994.16;5011900;28;49861;-74
2022/11/29 18:40:32;;;;;;;;;37.00;33.50;;;;;8.93;100.00;101990.06;5012659;28;49806;-75
2022/11/29 18:42:57;;;;;;;;;43.25;37.75;;;;;9.00;100.00;101997.41;5011792;28;55242;-69
2022/11/29 18:45:23;;;;;;;;;45.00;36.50;;;;;9.01;100.00;102003.53;5011537;28;55784;-75
2022/11/29 18:47:48;;;;;;;;;44.75;39.75;;;;;8.92;100.00;101979.53;5011955;28;56383;-75
2022/11/29 18:50:13;;;;;;;;;38.25;36.25;;;;;8.90;100.00;101976.84;5011809;28;50091;-72
2022/11/29 18:52:39;;;;;;;;;38.00;34.75;;;;;8.99;100.00;102000.84;4994692;28;49927;-67
2022/11/29 18:55:04;;;;;;;;;43.25;35.75;;;;;8.74;100.00;101963.84;5012476;28;49737;-70
2022/11/29 18:57:29;;;;;;;;;44.50;37.25;;;;;8.95;100.00;102004.13;5031070;28;49866;-66
2022/11/29 18:59:55;;;;;;;;;38.00;34.25;;;;;8.74;100.00;101969.06;5031135;28;49796;-80
2022/11/29 19:02:20;;;;;;;;;37.50;34.25;;;;;8.71;100.00;101979.41;5030701;28;50509;-70
2022/11/29 19:04:47;;;;;;;;;39.00;35.75;;;;;8.49;100.00;101948.69;5030500;28;50293;-69
2022/11/29 19:07:12;;;;;;;;;44.50;35.50;;;;;8.88;100.00;102016.06;5033017;28;49888;-67
2022/11/29 19:09:38;;;;;;;;;48.75;38.75;;;;;8.88;100.00;102020.41;5030989;28;49917;-67
2022/11/29 19:12:03;;;;;;;;;43.00;36.25;;;;;8.49;100.00;101959.16;5029807;28;69566;-68
2022/11/29 19:14:31;;;;;;;;;34.25;30.50;;;;;8.84;100.00;102013.19;5030537;28;49702;-66